createdAt,value
2019-01-28T00:02:42.955Z,98002.15
2019-01-28T00:07:46.443Z,98011.91
2019-01-28T00:12:49.901Z,98020.34
2019-01-28T00:17:53.333Z,98021.09
2019-01-28T00:22:56.781Z,98016.78
2019-01-28T00:28:00.216Z,98010.04
2019-01-28T00:33:04.023Z,98016.48
2019-01-28T00:38:07.445Z,98015.59
2019-01-28T00:43:10.903Z,98007.76
2019-01-28T00:48:14.467Z,98005.58
2019-01-28T00:53:17.921Z,98005.91
2019-01-28T00:58:21.346Z,98004.29
2019-01-28T01:03:24.822Z,98000.69
2019-01-28T01:08:28.258Z,98002.20
2019-01-28T01:13:31.706Z,97997.90
2019-01-28T01:18:35.141Z,97992.86
2019-01-28T01:23:38.589Z,98001.02
2019-01-28T01:28:42.036Z,97991.84
2019-01-28T01:33:45.483Z,97988.93
2019-01-28T01:38:49.135Z,97982.98
2019-01-28T01:43:52.513Z,97979.36
2019-01-28T01:48:55.998Z,97987.20
2019-01-28T01:53:59.438Z,97972.58
2019-01-28T01:59:02.901Z,97978.18
2019-01-28T02:04:06.389Z,97968.39
2019-01-28T02:09:09.820Z,97969.22
2019-01-28T02:14:13.425Z,97967.38
2019-01-28T02:19:16.848Z,97959.75
2019-01-28T02:24:20.345Z,97951.97
2019-01-28T02:29:23.777Z,97950.45
2019-01-28T02:34:27.271Z,97941.59
2019-01-28T02:39:30.777Z,97937.52
2019-01-28T02:44:34.236Z,97933.09
2019-01-28T02:49:37.760Z,97932.82
2019-01-28T02:54:41.191Z,97937.02
2019-01-28T02:59:44.661Z,97921.80
2019-01-28T03:04:48.110Z,97921.90
2019-01-28T03:09:51.608Z,97909.02
2019-01-28T03:14:55.025Z,97908.62
2019-01-28T03:19:58.469Z,97897.10
2019-01-28T03:25:01.979Z,97890.78
2019-01-28T03:30:08.961Z,97897.89
2019-01-28T03:35:12.606Z,97894.13
2019-01-28T03:40:18.294Z,97886.53
2019-01-28T03:45:22.990Z,97881.77
2019-01-28T03:50:26.400Z,97877.24
2019-01-28T03:55:29.832Z,97872.76
2019-01-28T04:00:33.256Z,97868.95
2019-01-28T04:05:36.696Z,97870.16
2019-01-28T04:10:40.112Z,97871.25
2019-01-28T04:15:43.530Z,97870.28
2019-01-28T04:20:47.574Z,97873.43
2019-01-28T04:25:51.059Z,97862.91
2019-01-28T04:30:54.499Z,97865.19
2019-01-28T04:35:57.918Z,97858.82
2019-01-28T04:41:01.390Z,97870.91
2019-01-28T04:46:04.826Z,97857.27
2019-01-28T04:51:08.252Z,97852.66
2019-01-28T04:56:11.738Z,97850.95
2019-01-28T05:01:15.170Z,97847.20
2019-01-28T05:06:18.585Z,97848.65
2019-01-28T05:11:22.011Z,97855.53
2019-01-28T05:16:25.444Z,97850.45
2019-01-28T05:21:28.916Z,97849.88
2019-01-28T05:26:32.393Z,97846.41
2019-01-28T05:31:35.744Z,97845.64
2019-01-28T05:36:39.170Z,97841.11
2019-01-28T05:41:42.630Z,97839.08
2019-01-28T05:46:46.039Z,97838.56
2019-01-28T05:51:49.517Z,97828.11
2019-01-28T05:56:53.003Z,97840.02
2019-01-28T06:01:56.428Z,97834.33
2019-01-28T06:06:59.861Z,97830.73
2019-01-28T06:12:03.309Z,97831.01
2019-01-28T06:17:06.752Z,97831.31
2019-01-28T06:22:10.202Z,97838.55
2019-01-28T06:27:13.629Z,97842.58
2019-01-28T06:32:17.051Z,97838.95
2019-01-28T06:37:20.541Z,97838.00
2019-01-28T06:42:24.023Z,97845.78
2019-01-28T06:47:27.442Z,97846.39
2019-01-28T06:52:30.883Z,97851.49
2019-01-28T06:57:34.320Z,97851.98
2019-01-28T07:02:37.880Z,97857.46
2019-01-28T07:07:41.364Z,97859.98
2019-01-28T07:12:44.783Z,97857.48
2019-01-28T07:17:54.618Z,97854.46
2019-01-28T07:22:53.767Z,97864.80
2019-01-28T07:27:57.195Z,97870.39
2019-01-28T07:33:00.649Z,97865.20
2019-01-28T07:38:04.439Z,97880.97
2019-01-28T07:43:07.972Z,97882.60
2019-01-28T07:48:11.374Z,97886.30
2019-01-28T07:53:14.815Z,97895.24
2019-01-28T07:58:19.168Z,97893.56
2019-01-28T08:03:22.589Z,97903.59
2019-01-28T08:08:26.003Z,97904.77
2019-01-28T08:13:29.545Z,97906.12
2019-01-28T08:18:32.986Z,97914.17
2019-01-28T08:23:36.475Z,97913.33
2019-01-28T08:28:39.949Z,97914.85
2019-01-28T08:33:43.372Z,97921.73
2019-01-28T08:38:46.792Z,97920.83
2019-01-28T08:43:50.231Z,97917.42
2019-01-28T08:48:53.765Z,97924.69
2019-01-28T08:53:57.370Z,97932.57
2019-01-28T08:59:00.881Z,97937.63
2019-01-28T09:04:04.598Z,97926.20
2019-01-28T09:09:09.462Z,97935.78
2019-01-28T09:14:12.937Z,97935.56
2019-01-28T09:19:16.741Z,97931.31
2019-01-28T09:24:20.179Z,97942.28
2019-01-28T09:29:23.617Z,97948.63
2019-01-28T09:34:27.090Z,97957.80
2019-01-28T09:39:30.533Z,97966.25
2019-01-28T09:44:33.968Z,97976.39
2019-01-28T09:49:37.374Z,97978.02
2019-01-28T09:54:40.810Z,97988.93
2019-01-28T09:59:44.412Z,97993.86
2019-01-28T10:04:47.920Z,98000.63
2019-01-28T10:09:51.503Z,98009.20
2019-01-28T10:14:54.946Z,98012.52
2019-01-28T10:19:58.341Z,98023.50
2019-01-28T10:25:01.779Z,98041.55
2019-01-28T10:30:08.875Z,98053.87
2019-01-28T10:35:12.681Z,98061.76
2019-01-28T10:40:19.509Z,98072.40
2019-01-28T10:45:23.274Z,98085.59
2019-01-28T10:50:27.939Z,98101.21
2019-01-28T10:55:31.486Z,98105.53
2019-01-28T11:00:40.226Z,98119.09
2019-01-28T11:05:45.373Z,98112.87
2019-01-28T11:10:49.037Z,98130.82
2019-01-28T11:15:52.455Z,98131.20
2019-01-28T11:20:55.894Z,98134.73
2019-01-28T11:25:59.655Z,98138.44
2019-01-28T11:31:04.824Z,98149.37
2019-01-28T11:36:08.740Z,98157.05
2019-01-28T11:41:12.349Z,98167.55
2019-01-28T11:46:15.827Z,98185.14
2019-01-28T11:51:19.234Z,98190.87
2019-01-28T11:56:22.672Z,98200.05
2019-01-28T12:01:27.488Z,98217.77
2019-01-28T12:06:30.943Z,98227.63
2019-01-28T12:11:34.397Z,98240.97
2019-01-28T12:16:37.848Z,98247.66
2019-01-28T12:21:41.696Z,98256.28
2019-01-28T12:26:45.168Z,98268.81
2019-01-28T12:31:48.600Z,98274.48
2019-01-28T12:36:52.028Z,98288.52
2019-01-28T12:41:55.474Z,98299.02
2019-01-28T12:46:58.967Z,98313.97
2019-01-28T12:52:02.403Z,98318.69
2019-01-28T12:57:08.643Z,98325.31
2019-01-28T13:02:12.197Z,98340.80
2019-01-28T13:07:15.693Z,98339.58
2019-01-28T13:12:19.136Z,98349.91
2019-01-28T13:17:22.627Z,98366.20
2019-01-28T13:22:26.245Z,98370.06
2019-01-28T13:27:30.031Z,98384.77
2019-01-28T13:32:33.636Z,98385.09
2019-01-28T13:37:37.182Z,98388.97
2019-01-28T13:42:40.706Z,98408.34
2019-01-28T13:47:44.482Z,98407.91
2019-01-28T13:52:48.145Z,98425.38
2019-01-28T13:57:51.653Z,98429.48
2019-01-28T14:02:55.524Z,98433.84
2019-01-28T14:07:59.134Z,98466.11
2019-01-28T14:13:02.588Z,98488.06
2019-01-28T14:18:07.605Z,98500.87
2019-01-28T14:23:11.114Z,98516.59
2019-01-28T14:28:14.532Z,98526.17
2019-01-28T14:33:18.124Z,98542.16
2019-01-28T14:38:21.914Z,98555.46
2019-01-28T14:43:25.334Z,98568.52
2019-01-28T14:48:28.863Z,98579.05
2019-01-28T14:53:32.271Z,98596.16
2019-01-28T14:58:35.734Z,98610.36
2019-01-28T15:03:39.164Z,98629.64
2019-01-28T15:08:42.635Z,98642.21
2019-01-28T15:13:46.088Z,98656.31
2019-01-28T15:18:49.572Z,98665.52
2019-01-28T15:23:52.998Z,98686.52
2019-01-28T15:28:56.456Z,98701.56
2019-01-28T15:33:59.955Z,98707.68
2019-01-28T15:39:05.035Z,98725.70
2019-01-28T15:44:08.535Z,98732.03
2019-01-28T15:49:12.051Z,98749.27
2019-01-28T15:54:15.549Z,98759.20
2019-01-28T15:59:19.151Z,98781.20
2019-01-28T16:04:22.545Z,98795.81
2019-01-28T16:09:28.953Z,98805.82
2019-01-28T16:14:31.219Z,98828.70
2019-01-28T16:19:34.663Z,98837.32
2019-01-28T16:24:38.078Z,98847.14
2019-01-28T16:29:41.796Z,98864.27
2019-01-28T16:34:45.227Z,98868.52
2019-01-28T16:39:48.665Z,98879.67
2019-01-28T16:44:52.197Z,98906.78
2019-01-28T16:49:55.738Z,98915.38
2019-01-28T16:54:59.164Z,98932.96
2019-01-28T17:00:18.856Z,98934.72
2019-01-28T17:05:22.516Z,98950.17
2019-01-28T17:10:26.009Z,98960.97
2019-01-28T17:15:29.522Z,98972.52
2019-01-28T17:20:35.598Z,98990.51
2019-01-28T17:25:41.656Z,98994.41
2019-01-28T17:30:47.161Z,99003.87
2019-01-28T17:35:50.672Z,99009.47
2019-01-28T17:40:54.131Z,99024.14
2019-01-28T17:45:57.570Z,99042.56
2019-01-28T17:51:02.029Z,99048.17
2019-01-28T17:56:05.643Z,99070.44
2019-01-28T18:01:09.106Z,99079.03
2019-01-28T18:06:12.541Z,99088.44
2019-01-28T18:11:16.130Z,99104.26
2019-01-28T18:16:19.943Z,99106.86
2019-01-28T18:21:23.554Z,99119.72
2019-01-28T18:26:27.269Z,99127.41
2019-01-28T18:31:30.733Z,99143.71
2019-01-28T18:36:34.159Z,99151.79
2019-01-28T18:41:37.577Z,99154.81
2019-01-28T18:46:41.052Z,99156.53
2019-01-28T18:51:44.654Z,99163.79
2019-01-28T18:56:48.070Z,99177.55
2019-01-28T19:01:51.569Z,99183.13
2019-01-28T19:06:56.651Z,99198.14
2019-01-28T19:12:01.754Z,99210.16
2019-01-28T19:17:07.202Z,99226.02
2019-01-28T19:22:10.646Z,99228.61
2019-01-28T19:27:14.061Z,99241.48
2019-01-28T19:32:17.473Z,99250.50
2019-01-28T19:37:20.910Z,99253.06
2019-01-28T19:42:24.373Z,99261.20
2019-01-28T19:47:28.071Z,99271.47
2019-01-28T19:52:31.521Z,99277.92
2019-01-28T19:57:34.960Z,99285.61
2019-01-28T20:02:38.453Z,99293.34
2019-01-28T20:07:41.899Z,99301.91
2019-01-28T20:12:45.516Z,99308.77
2019-01-28T20:17:49.190Z,99321.19
2019-01-28T20:22:52.715Z,99329.75
2019-01-28T20:27:56.246Z,99332.76
2019-01-28T20:32:59.660Z,99334.05
2019-01-28T20:38:03.118Z,99337.46
2019-01-28T20:43:06.660Z,99349.91
2019-01-28T20:48:10.118Z,99362.76
2019-01-28T20:53:13.687Z,99368.77
2019-01-28T20:58:17.227Z,99386.75
2019-01-28T21:03:20.603Z,99381.19
2019-01-28T21:08:24.133Z,99398.77
2019-01-28T21:13:27.629Z,99400.91
2019-01-28T21:18:31.054Z,99406.46
2019-01-28T21:23:34.524Z,99407.34
2019-01-28T21:28:37.953Z,99408.64
2019-01-28T21:33:41.377Z,99428.34
2019-01-28T21:38:46.406Z,99432.22
2019-01-28T21:43:49.995Z,99427.48
2019-01-28T21:48:53.498Z,99438.63
2019-01-28T21:53:57.204Z,99439.48
2019-01-28T21:59:00.661Z,99449.79
2019-01-28T22:04:04.249Z,99455.78
2019-01-28T22:09:08.912Z,99458.34
2019-01-28T22:14:12.350Z,99463.46
2019-01-28T22:19:15.798Z,99474.19
2019-01-28T22:24:19.665Z,99475.92
2019-01-28T22:29:23.225Z,99482.33
2019-01-28T22:34:26.837Z,99487.47
2019-01-28T22:39:30.263Z,99489.20
2019-01-28T22:44:33.674Z,99492.62
2019-01-28T22:49:37.197Z,99506.33
2019-01-28T22:54:40.616Z,99506.74
2019-01-28T22:59:44.034Z,99509.30
2019-01-28T23:04:47.687Z,99517.41
2019-01-28T23:09:51.379Z,99526.44
2019-01-28T23:14:54.884Z,99535.41
2019-01-28T23:19:58.301Z,99535.86
2019-01-28T23:25:01.822Z,99534.57
2019-01-28T23:30:08.942Z,99538.43
2019-01-28T23:35:12.585Z,99543.57
2019-01-28T23:40:16.106Z,99547.86
2019-01-28T23:45:19.667Z,99552.57
2019-01-28T23:50:23.219Z,99547.41
2019-01-28T23:55:26.644Z,99555.11
